createdAt,value
2019-03-26T00:01:54.148Z,89.68
2019-03-26T00:04:22.617Z,89.48
2019-03-26T00:06:51.044Z,89.71
2019-03-26T00:09:19.462Z,89.34
2019-03-26T00:14:21.924Z,89.73
2019-03-26T00:16:50.348Z,90.52
2019-03-26T00:19:18.807Z,90.25
2019-03-26T00:22:06.417Z,90.66
2019-03-26T00:24:54.195Z,90.81
2019-03-26T00:27:22.611Z,89.62
2019-03-26T00:29:51.040Z,90.01
2019-03-26T00:32:19.514Z,90.23
2019-03-26T00:34:47.934Z,90.05
2019-03-26T00:37:16.350Z,90.03
2019-03-26T00:39:44.821Z,89.64
2019-03-26T00:42:13.231Z,89.69
2019-03-26T00:44:41.654Z,89.89
2019-03-26T00:47:29.632Z,89.76
2019-03-26T00:49:58.064Z,89.74
2019-03-26T00:52:26.485Z,89.14
2019-03-26T00:54:54.936Z,90.22
2019-03-26T00:57:23.359Z,89.40
2019-03-26T00:59:51.782Z,89.79
2019-03-26T01:02:20.287Z,90.01
2019-03-26T01:04:48.736Z,89.95
2019-03-26T01:07:17.192Z,89.32
2019-03-26T01:09:45.692Z,89.43
2019-03-26T01:12:14.120Z,89.52
2019-03-26T01:14:42.544Z,89.46
2019-03-26T01:17:10.995Z,89.31
2019-03-26T01:48:42.688Z,90.15
2019-03-26T01:51:30.301Z,90.03
2019-03-26T01:53:58.750Z,89.92
2019-03-26T01:56:27.177Z,90.15
2019-03-26T01:58:55.589Z,90.06
2019-03-26T02:03:58.426Z,89.35
2019-03-26T02:06:26.851Z,89.71
2019-03-26T02:08:55.302Z,89.73
2019-03-26T02:11:23.723Z,89.83
2019-03-26T02:13:52.148Z,89.22
2019-03-26T02:16:20.606Z,89.12
2019-03-26T02:18:49.027Z,89.47
2019-03-26T02:21:17.450Z,89.21
2019-03-26T02:33:23.237Z,89.68
2019-03-26T02:35:51.699Z,89.98
2019-03-26T02:38:20.146Z,90.07
2019-03-26T02:40:48.574Z,90.52
2019-03-26T02:43:17.021Z,90.31
2019-03-26T02:46:25.373Z,90.42
2019-03-26T02:48:53.822Z,90.59
2019-03-26T02:51:22.244Z,90.32
2019-03-26T02:53:50.667Z,90.56
2019-03-26T03:25:10.739Z,91.37
2019-03-26T03:27:39.166Z,90.38
2019-03-26T03:30:47.867Z,88.60
2019-03-26T03:33:16.294Z,87.63
2019-03-26T03:36:04.183Z,88.73
2019-03-26T03:38:51.811Z,88.24
2019-03-26T03:41:20.263Z,87.68
2019-03-26T03:43:48.691Z,88.15
2019-03-26T03:49:51.497Z,88.33
2019-03-26T03:52:59.856Z,87.95
2019-03-26T03:56:08.237Z,88.67
2019-03-26T03:59:16.567Z,91.94
2019-03-26T04:04:19.663Z,94.47
2019-03-26T04:06:48.084Z,94.72
2019-03-26T04:09:35.948Z,95.05
2019-03-26T04:12:23.618Z,95.18
2019-03-26T04:14:52.077Z,94.79
2019-03-26T04:17:39.835Z,94.71
2019-03-26T04:20:27.547Z,95.85
2019-03-26T04:22:55.968Z,95.68
2019-03-26T04:25:24.421Z,95.81
2019-03-26T04:30:45.801Z,96.00
2019-03-26T04:35:48.412Z,96.28
2019-03-26T04:38:16.845Z,96.80
2019-03-26T04:43:19.281Z,97.87
2019-03-26T04:45:47.668Z,98.38
2019-03-26T04:48:16.093Z,98.18
2019-03-26T04:50:44.566Z,98.19
2019-03-26T04:53:13.006Z,98.37
2019-03-26T04:55:41.429Z,98.27
2019-03-26T04:58:09.855Z,98.44
2019-03-26T05:00:38.311Z,98.40
2019-03-26T05:03:06.735Z,98.47
2019-03-26T05:05:35.159Z,98.05
2019-03-26T05:08:43.551Z,98.08
2019-03-26T05:11:11.982Z,98.18
2019-03-26T05:13:40.393Z,99.25
2019-03-26T05:16:28.111Z,98.71
2019-03-26T05:18:56.534Z,98.62
2019-03-26T05:21:24.969Z,98.31
2019-03-26T05:23:53.420Z,98.24
2019-03-26T05:26:21.838Z,97.75
2019-03-26T05:28:50.263Z,97.84
2019-03-26T05:31:18.726Z,98.29
2019-03-26T05:33:47.148Z,98.60
2019-03-26T05:36:15.571Z,98.55
2019-03-26T05:38:44.024Z,98.95
2019-03-26T05:41:12.448Z,99.30
2019-03-26T05:43:40.870Z,98.73
2019-03-26T05:46:09.325Z,98.97
2019-03-26T05:48:37.747Z,99.36
2019-03-26T05:51:25.520Z,99.37
2019-03-26T05:54:13.258Z,99.56
2019-03-26T05:59:16.078Z,99.21
2019-03-26T06:01:44.582Z,99.62
2019-03-26T06:04:13.035Z,100.00
2019-03-26T06:06:41.461Z,100.00
2019-03-26T06:09:09.981Z,100.00
2019-03-26T06:11:38.441Z,99.79
2019-03-26T06:14:06.936Z,98.94
2019-03-26T06:16:38.583Z,98.99
2019-03-26T06:19:05.580Z,98.93
2019-03-26T06:21:34.005Z,99.03
2019-03-26T06:24:02.429Z,99.38
2019-03-26T06:29:04.955Z,99.25
2019-03-26T06:31:33.420Z,99.73
2019-03-26T06:34:01.853Z,98.95
2019-03-26T06:36:30.272Z,98.46
2019-03-26T06:39:18.048Z,98.90
2019-03-26T06:41:46.477Z,99.20
2019-03-26T06:44:14.903Z,99.61
2019-03-26T06:46:43.376Z,99.89
2019-03-26T06:49:11.805Z,99.87
2019-03-26T06:51:40.238Z,98.72
2019-03-26T06:57:01.564Z,96.35
2019-03-26T06:59:30.017Z,96.24
2019-03-26T07:02:17.643Z,94.73
2019-03-26T07:05:05.661Z,94.86
2019-03-26T07:07:53.714Z,94.76
2019-03-26T07:11:02.084Z,94.11
2019-03-26T07:13:30.518Z,93.94
2019-03-26T07:15:59.030Z,93.76
2019-03-26T07:21:22.003Z,92.41
2019-03-26T07:23:50.435Z,91.53
2019-03-26T07:26:38.210Z,90.87
2019-03-26T07:29:25.967Z,90.37
2019-03-26T07:31:54.428Z,91.39
2019-03-26T07:34:22.859Z,90.12
2019-03-26T07:36:51.284Z,89.37
2019-03-26T07:41:53.732Z,88.42
2019-03-26T07:44:22.164Z,84.34
2019-03-26T07:46:50.614Z,80.74
2019-03-26T07:49:19.040Z,75.75
2019-03-26T07:52:06.682Z,75.25
2019-03-26T07:54:35.222Z,74.40
2019-03-26T07:57:03.671Z,75.39
2019-03-26T07:59:32.137Z,70.67
2019-03-26T08:02:00.558Z,71.98
2019-03-26T08:04:28.991Z,71.87
2019-03-26T08:06:57.435Z,71.22
2019-03-26T08:09:25.917Z,70.08
2019-03-26T08:11:56.016Z,71.71
2019-03-26T08:16:58.341Z,70.31
2019-03-26T08:19:26.770Z,70.20
2019-03-26T08:21:55.225Z,71.38
2019-03-26T08:24:23.739Z,70.39
2019-03-26T08:26:52.300Z,71.43
2019-03-26T08:32:16.060Z,72.01
2019-03-26T08:34:46.764Z,71.95
2019-03-26T08:37:14.714Z,73.19
2019-03-26T08:39:43.149Z,73.96
2019-03-26T08:42:11.605Z,71.92
2019-03-26T08:44:40.128Z,72.13
2019-03-26T08:47:27.784Z,71.76
2019-03-26T08:49:56.218Z,72.92
2019-03-26T08:52:24.653Z,73.37
2019-03-26T08:57:27.716Z,71.73
2019-03-26T08:59:56.186Z,70.44
2019-03-26T09:02:24.618Z,68.70
2019-03-26T09:04:53.050Z,70.72
2019-03-26T09:07:21.563Z,69.49
2019-03-26T09:09:50.016Z,70.13
2019-03-26T09:12:18.441Z,71.07
2019-03-26T09:17:20.925Z,69.43
2019-03-26T09:19:49.359Z,71.81
2019-03-26T09:24:51.602Z,67.57
2019-03-26T09:27:20.028Z,68.21
2019-03-26T09:29:48.493Z,69.17
2019-03-26T09:32:16.919Z,69.31
2019-03-26T09:34:45.354Z,69.73
2019-03-26T09:37:13.812Z,70.32
2019-03-26T09:39:42.242Z,71.29
2019-03-26T09:42:10.673Z,72.36
2019-03-26T09:44:39.135Z,70.02
2019-03-26T09:47:26.750Z,70.03
2019-03-26T09:49:55.206Z,69.96
2019-03-26T09:52:23.638Z,70.65
2019-03-26T09:54:52.071Z,69.23
2019-03-26T09:57:20.530Z,68.65
2019-03-26T09:59:48.959Z,68.12
2019-03-26T10:02:36.859Z,67.70
2019-03-26T10:05:45.194Z,67.58
2019-03-26T10:08:13.722Z,66.37
2019-03-26T10:10:42.154Z,66.31
2019-03-26T10:13:10.589Z,65.85
2019-03-26T10:15:39.116Z,66.50
2019-03-26T10:18:07.540Z,66.71
2019-03-26T10:20:55.200Z,65.82
2019-03-26T10:23:23.630Z,65.18
2019-03-26T10:25:52.129Z,64.85
2019-03-26T10:28:20.593Z,65.03
2019-03-26T10:30:49.024Z,63.34
2019-03-26T10:33:17.451Z,62.19
2019-03-26T10:36:05.316Z,64.68
2019-03-26T10:38:33.738Z,63.32
2019-03-26T10:41:02.166Z,62.48
2019-03-26T10:46:24.398Z,60.62
2019-03-26T10:48:52.852Z,61.73
2019-03-26T10:51:21.291Z,62.79
2019-03-26T10:53:49.716Z,62.87
2019-03-26T10:58:52.161Z,62.25
2019-03-26T11:01:20.588Z,62.54
2019-03-26T11:03:49.050Z,62.09
2019-03-26T11:06:17.547Z,61.25
2019-03-26T11:11:39.452Z,62.29
2019-03-26T11:14:07.853Z,63.02
2019-03-26T11:16:55.504Z,62.75
2019-03-26T11:19:23.931Z,61.25
2019-03-26T11:22:11.705Z,61.36
2019-03-26T11:28:07.485Z,61.55
2019-03-26T11:30:35.913Z,61.01
2019-03-26T11:33:23.699Z,60.52
2019-03-26T11:35:52.122Z,60.18
2019-03-26T11:38:39.766Z,61.28
2019-03-26T11:41:27.383Z,60.56
2019-03-26T11:43:55.836Z,60.73
2019-03-26T11:46:24.264Z,60.43
2019-03-26T11:48:52.690Z,59.56
2019-03-26T11:51:21.154Z,59.93
2019-03-26T11:53:49.578Z,60.72
2019-03-26T11:56:17.999Z,59.71
2019-03-26T11:59:05.646Z,58.83
2019-03-26T12:01:34.071Z,59.94
2019-03-26T12:04:02.568Z,60.78
2019-03-26T12:09:46.420Z,59.85
2019-03-26T12:14:48.263Z,59.57
2019-03-26T12:17:16.698Z,60.40
2019-03-26T12:19:45.189Z,59.00
2019-03-26T12:22:13.587Z,59.73
2019-03-26T12:24:42.012Z,61.80
2019-03-26T12:27:29.871Z,60.08
2019-03-26T12:29:58.296Z,59.42
2019-03-26T12:32:26.722Z,59.19
2019-03-26T12:34:55.251Z,59.04
2019-03-26T12:37:23.676Z,58.05
2019-03-26T12:39:59.260Z,57.78
2019-03-26T12:42:41.493Z,58.17
2019-03-26T12:45:49.822Z,58.22
2019-03-26T12:48:18.341Z,57.01
2019-03-26T12:51:05.964Z,56.56
2019-03-26T12:53:53.632Z,56.91
2019-03-26T12:56:22.065Z,56.80
2019-03-26T12:58:50.476Z,56.49
2019-03-26T13:01:38.263Z,55.41
2019-03-26T13:04:26.013Z,55.65
2019-03-26T13:09:28.126Z,55.27
2019-03-26T13:12:15.773Z,55.67
2019-03-26T13:14:44.197Z,56.70
2019-03-26T13:17:12.635Z,55.77
2019-03-26T13:22:15.324Z,55.82
2019-03-26T13:24:43.771Z,55.76
2019-03-26T13:27:12.241Z,57.91
2019-03-26T13:29:40.681Z,57.45
2019-03-26T13:32:09.107Z,57.59
2019-03-26T13:34:37.571Z,55.21
2019-03-26T13:37:05.990Z,55.13
2019-03-26T13:39:34.500Z,54.94
2019-03-26T13:42:10.148Z,54.17
2019-03-26T13:44:38.580Z,53.66
2019-03-26T13:47:07.002Z,52.73
2019-03-26T13:49:35.472Z,53.58
2019-03-26T13:52:23.087Z,53.48
2019-03-26T13:57:25.187Z,52.14
2019-03-26T13:59:53.621Z,52.48
2019-03-26T14:02:41.400Z,52.55
2019-03-26T14:05:49.746Z,51.93
2019-03-26T14:08:18.197Z,52.38
2019-03-26T14:11:05.814Z,52.99
2019-03-26T14:13:34.280Z,53.70
2019-03-26T14:16:02.786Z,53.92
2019-03-26T14:18:31.212Z,54.34
2019-03-26T14:20:59.750Z,52.69
2019-03-26T14:23:47.367Z,52.84
2019-03-26T14:29:08.912Z,53.63
2019-03-26T14:31:56.613Z,54.06
2019-03-26T14:34:25.061Z,53.59
2019-03-26T14:36:53.485Z,54.94
2019-03-26T14:39:21.933Z,53.20
2019-03-26T14:42:09.551Z,53.42
2019-03-26T14:44:38.009Z,52.74
2019-03-26T14:47:06.508Z,51.72
2019-03-26T14:49:34.944Z,54.23
2019-03-26T14:52:03.414Z,54.48
2019-03-26T14:54:31.840Z,54.57
2019-03-26T14:57:19.538Z,53.71
2019-03-26T14:59:47.974Z,54.86
2019-03-26T15:02:16.412Z,55.26
2019-03-26T15:07:19.115Z,55.30
2019-03-26T15:09:47.580Z,54.65
2019-03-26T15:12:16.017Z,55.56
2019-03-26T15:14:44.443Z,54.10
2019-03-26T15:19:46.502Z,54.56
2019-03-26T15:22:14.928Z,55.24
2019-03-26T15:24:43.375Z,55.22
2019-03-26T15:27:11.800Z,56.11
2019-03-26T15:29:40.223Z,56.99
2019-03-26T15:32:08.686Z,56.86
2019-03-26T15:34:37.109Z,56.62
2019-03-26T15:40:00.403Z,57.04
2019-03-26T15:42:28.815Z,57.62
2019-03-26T15:45:16.600Z,57.35
2019-03-26T15:47:45.023Z,56.75
2019-03-26T15:50:53.471Z,57.28
2019-03-26T15:53:21.896Z,56.87
2019-03-26T15:55:50.320Z,56.59
2019-03-26T16:00:52.668Z,55.74
2019-03-26T16:03:22.513Z,57.04
2019-03-26T16:05:51.367Z,56.39
2019-03-26T16:08:19.798Z,57.54
2019-03-26T16:10:48.247Z,55.90
2019-03-26T16:13:16.684Z,55.71
2019-03-26T16:15:45.335Z,56.12
2019-03-26T16:18:15.320Z,56.41
2019-03-26T16:20:43.755Z,56.87
2019-03-26T16:23:31.418Z,57.76
2019-03-26T16:25:59.831Z,58.16
2019-03-26T16:28:28.260Z,58.25
2019-03-26T16:31:15.966Z,58.60
2019-03-26T16:34:03.602Z,58.75
2019-03-26T16:39:45.570Z,59.93
2019-03-26T16:50:35.414Z,59.18
2019-03-26T16:53:03.864Z,58.43
2019-03-26T16:55:51.487Z,58.27
2019-03-26T16:58:39.142Z,58.89
2019-03-26T17:01:07.572Z,58.65
2019-03-26T17:03:36.041Z,59.58
2019-03-26T17:06:23.718Z,60.23
2019-03-26T17:08:52.138Z,60.55
2019-03-26T17:11:20.566Z,60.94
2019-03-26T17:13:49.031Z,61.79
2019-03-26T17:16:17.460Z,61.68
2019-03-26T17:18:45.885Z,61.16
2019-03-26T17:21:14.351Z,61.00
2019-03-26T17:23:42.842Z,61.49
2019-03-26T17:26:30.665Z,62.01
2019-03-26T17:28:59.116Z,61.86
2019-03-26T17:31:27.540Z,62.87
2019-03-26T17:33:56.015Z,63.23
2019-03-26T17:36:24.437Z,62.78
2019-03-26T17:38:52.871Z,62.22
2019-03-26T17:41:21.404Z,62.29
2019-03-26T17:44:09.017Z,63.03
2019-03-26T17:49:11.878Z,63.44
2019-03-26T17:51:40.981Z,63.96
2019-03-26T17:54:10.474Z,63.27
2019-03-26T17:56:38.899Z,64.20
2019-03-26T17:59:07.353Z,64.39
2019-03-26T18:01:54.965Z,64.46
2019-03-26T18:07:18.052Z,64.69
2019-03-26T18:09:46.482Z,65.90
2019-03-26T18:12:14.911Z,65.54
2019-03-26T18:14:43.432Z,66.49
2019-03-26T18:17:11.856Z,66.51
2019-03-26T18:19:40.280Z,67.20
2019-03-26T18:22:08.805Z,66.92
2019-03-26T18:24:37.226Z,67.72
2019-03-26T18:27:45.913Z,68.57
2019-03-26T18:30:54.259Z,69.15
2019-03-26T18:33:22.714Z,68.65
2019-03-26T18:35:51.139Z,69.83
2019-03-26T18:38:19.563Z,69.90
2019-03-26T18:40:48.047Z,69.86
2019-03-26T18:43:16.458Z,70.97
2019-03-26T18:45:44.883Z,71.46
2019-03-26T18:51:06.283Z,72.87
2019-03-26T18:53:34.744Z,72.95
2019-03-26T18:56:03.178Z,73.19
2019-03-26T18:58:31.606Z,72.59
2019-03-26T19:01:00.078Z,71.97
2019-03-26T19:03:28.495Z,72.60
2019-03-26T19:05:56.915Z,72.40
2019-03-26T19:08:25.387Z,73.32
2019-03-26T19:10:53.806Z,74.46
2019-03-26T19:13:22.278Z,73.46
2019-03-26T19:15:50.782Z,73.46
2019-03-26T19:18:19.204Z,73.84
2019-03-26T19:21:01.018Z,75.82
2019-03-26T19:23:17.837Z,76.39
2019-03-26T19:26:05.607Z,77.66
2019-03-26T19:28:34.067Z,78.25
2019-03-26T19:31:02.493Z,78.37
2019-03-26T19:33:30.920Z,78.97
2019-03-26T19:35:59.382Z,79.34
2019-03-26T19:38:27.814Z,79.86
2019-03-26T19:40:56.275Z,80.49
2019-03-26T19:43:24.728Z,80.74
2019-03-26T19:45:53.150Z,80.62
2019-03-26T19:48:21.571Z,81.26
2019-03-26T19:51:09.156Z,79.69
2019-03-26T19:53:37.581Z,79.70
2019-03-26T19:56:06.018Z,81.47
2019-03-26T19:58:34.467Z,80.86
2019-03-26T20:01:22.244Z,80.20
2019-03-26T20:06:24.331Z,80.64
2019-03-26T20:11:26.761Z,81.24
2019-03-26T20:13:55.229Z,80.59
2019-03-26T20:16:23.651Z,80.50
2019-03-26T20:18:52.330Z,81.23
2019-03-26T20:21:21.197Z,81.54
2019-03-26T20:23:49.620Z,81.76
2019-03-26T20:26:18.052Z,82.43
2019-03-26T20:28:46.503Z,82.89
2019-03-26T20:31:14.933Z,83.08
2019-03-26T20:33:43.366Z,82.95
2019-03-26T20:36:11.816Z,82.46
2019-03-26T20:38:40.246Z,83.05
2019-03-26T20:41:08.673Z,83.43
2019-03-26T20:43:37.797Z,83.56
2019-03-26T20:46:06.384Z,83.32
2019-03-26T20:48:34.811Z,82.64
2019-03-26T20:51:03.289Z,83.30
2019-03-26T20:53:31.716Z,82.62
2019-03-26T20:56:00.294Z,82.99
2019-03-26T20:58:29.294Z,82.70
2019-03-26T21:00:57.720Z,83.17
2019-03-26T21:03:26.163Z,83.12
2019-03-26T21:05:54.609Z,83.53
2019-03-26T21:08:23.044Z,83.90
2019-03-26T21:10:51.473Z,84.14
2019-03-26T21:13:19.934Z,84.47
2019-03-26T21:15:57.182Z,85.27
2019-03-26T21:18:18.506Z,85.48
2019-03-26T21:20:47.083Z,86.08
2019-03-26T21:23:15.587Z,86.12
2019-03-26T21:25:44.488Z,85.99
2019-03-26T21:28:12.998Z,85.10
2019-03-26T21:30:41.611Z,84.30
2019-03-26T21:33:10.162Z,84.69
2019-03-26T21:35:38.740Z,84.30
2019-03-26T21:38:07.245Z,83.73
2019-03-26T21:40:35.770Z,83.96
2019-03-26T21:43:04.480Z,83.62
2019-03-26T21:45:37.907Z,82.98
2019-03-26T21:48:08.464Z,82.44
2019-03-26T21:50:37.332Z,82.52
2019-03-26T21:53:05.911Z,83.53
2019-03-26T21:55:34.341Z,83.17
2019-03-26T21:58:02.804Z,83.06
2019-03-26T22:00:31.234Z,83.08
2019-03-26T22:02:59.789Z,82.81
2019-03-26T22:05:28.242Z,82.42
2019-03-26T22:07:56.669Z,82.69
2019-03-26T22:10:25.099Z,82.64
2019-03-26T22:12:54.007Z,82.30
2019-03-26T22:15:22.431Z,83.37
2019-03-26T22:17:50.861Z,84.45
2019-03-26T22:20:19.312Z,84.47
2019-03-26T22:22:47.785Z,83.90
2019-03-26T22:25:16.256Z,83.74
2019-03-26T22:27:44.830Z,84.83
2019-03-26T22:30:14.198Z,86.12
2019-03-26T22:32:42.647Z,85.67
2019-03-26T22:35:11.271Z,85.20
2019-03-26T22:37:39.786Z,85.39
2019-03-26T22:40:09.071Z,85.86
2019-03-26T22:42:37.805Z,86.17
2019-03-26T22:45:08.742Z,86.02
2019-03-26T22:47:40.732Z,85.85
2019-03-26T22:50:10.155Z,85.95
2019-03-26T22:52:38.575Z,87.00
2019-03-26T22:55:09.483Z,86.91
2019-03-26T22:57:38.758Z,86.96
2019-03-26T23:00:10.501Z,87.39
2019-03-26T23:02:39.064Z,87.38
2019-03-26T23:05:08.948Z,87.02
2019-03-26T23:07:37.371Z,86.77
2019-03-26T23:10:07.272Z,86.73
2019-03-26T23:12:35.838Z,87.05
2019-03-26T23:15:05.842Z,87.23
2019-03-26T23:17:34.274Z,88.31
2019-03-26T23:20:02.727Z,88.37
2019-03-26T23:22:31.156Z,87.70
2019-03-26T23:24:59.579Z,87.92
2019-03-26T23:27:28.103Z,87.06
2019-03-26T23:29:56.643Z,87.35
2019-03-26T23:32:25.097Z,85.59
2019-03-26T23:34:53.553Z,86.54
2019-03-26T23:37:21.991Z,85.01
2019-03-26T23:39:50.448Z,83.93
2019-03-26T23:42:19.300Z,83.95
2019-03-26T23:44:57.712Z,84.01
2019-03-26T23:47:17.924Z,85.16
2019-03-26T23:49:46.915Z,86.07
2019-03-26T23:52:15.411Z,86.84
2019-03-26T23:54:43.858Z,86.58
2019-03-26T23:57:12.679Z,86.24
2019-03-26T23:59:41.091Z,86.55
